Time;durP1;ratioP1;P1;durP2;ratioP2;P2;SDS_P1;SDS_P2;PMS_P1;PMS_P2;Temp;Humidity;BMP_temperature;BMP_pressure;BME280_temperature;BME280_humidity;BME280_pressure;Samples;Min_cycle;Max_cycle;Signal;HPM_P1;HPM_P2
2023/06/07 04:24:27;;;;;;;20.35;4.80;;;;;;;10.73;81.29;96637.38;2101768;27;20567;-56
2023/06/07 04:25:33;;;;;;;7.60;4.05;;;;;;;10.68;81.95;96652.38;2105065;28;20195;-58
2023/06/07 08:26:45;;;;;;;5.80;2.90;;;;;;;20.67;59.69;96674.31;2090624;28;20543;-57
2023/06/07 08:28:55;;;;;;;4.28;2.80;;;;;;;21.71;57.70;96666.22;2089699;28;21084;-57
2023/06/07 08:31:05;;;;;;;3.95;2.60;;;;;;;21.97;56.60;96677.16;2092149;27;21081;-57
2023/06/07 08:33:16;;;;;;;3.53;2.30;;;;;;;21.81;55.95;96664.44;2100029;27;20561;-57
2023/06/07 08:35:37;;;;;;;5.70;3.08;;;;;;;21.67;55.65;96670.13;2097904;27;20570;-59
2023/06/07 08:38:08;;;;;;;3.65;2.22;;;;;;;21.54;56.98;96679.16;2083995;28;20560;-57
2023/06/07 08:39:09;;;;;;;4.68;2.35;;;;;;;21.97;56.90;96676.34;2080514;28;20204;-57
2023/06/07 08:41:40;;;;;;;5.75;2.58;;;;;;;22.35;55.39;96675.47;2084872;28;20572;-57
2023/06/07 08:42:42;;;;;;;8.07;2.95;;;;;;;21.69;56.08;96679.66;2081924;28;21129;-57
2023/06/07 08:43:43;;;;;;;6.72;2.50;;;;;;;21.31;57.27;96677.72;2078463;28;20287;-57
2023/06/07 08:44:45;;;;;;;7.00;2.55;;;;;;;21.93;56.74;96673.09;2078721;28;20259;-57
2023/06/07 08:45:49;;;;;;;4.45;2.20;;;;;;;22.48;56.37;96679.69;2079389;28;20228;-56
2023/06/07 08:46:52;;;;;;;6.85;3.42;;;;;;;22.02;56.20;96674.91;2070268;28;20267;-57
2023/06/07 08:47:56;;;;;;;4.97;2.78;;;;;;;22.33;55.99;96680.13;2070638;28;20198;-57
2023/06/07 08:49:00;;;;;;;3.67;2.65;;;;;;;22.40;55.73;96683.06;2074299;28;20864;-58
2023/06/07 08:50:03;;;;;;;6.10;3.50;;;;;;;22.01;55.71;96683.03;2081089;28;20199;-58
2023/06/07 08:51:08;;;;;;;5.70;3.10;;;;;;;21.76;56.49;96679.09;2076410;28;20232;-58
2023/06/07 08:52:10;;;;;;;5.32;2.90;;;;;;;21.57;56.76;96679.91;2073058;28;20201;-59
2023/06/07 08:53:26;;;;;;;4.72;2.85;;;;;;;22.06;56.54;96682.63;2074425;28;20215;-59
2023/06/07 08:54:29;;;;;;;4.80;2.65;;;;;;;22.53;55.22;96674.78;2073182;28;20197;-59
2023/06/07 08:55:33;;;;;;;8.20;3.10;;;;;;;22.76;54.55;96677.13;2074719;28;20291;-60
2023/06/07 08:56:38;;;;;;;4.85;2.80;;;;;;;22.32;55.26;96678.44;2073671;28;20197;-59
2023/06/07 08:57:40;;;;;;;6.70;2.38;;;;;;;22.62;55.40;96670.44;2073421;28;20198;-59
2023/06/07 08:58:42;;;;;;;28.27;22.02;;;;;;;22.96;54.62;96676.06;2071150;28;20193;-59
2023/06/07 08:59:45;;;;;;;9.30;4.20;;;;;;;22.80;54.79;96678.50;2073622;28;20289;-60
2023/06/07 09:00:47;;;;;;;5.30;2.53;;;;;;;21.78;55.11;96680.63;2073856;28;20221;-61
2023/06/07 09:01:49;;;;;;;10.80;5.72;;;;;;;22.42;55.57;96685.56;2073295;28;20213;-60
2023/06/07 09:02:52;;;;;;;6.97;2.40;;;;;;;21.71;55.54;96681.34;2073393;28;20226;-60
2023/06/07 09:03:54;;;;;;;4.72;2.58;;;;;;;22.09;55.25;96677.03;2072955;28;20212;-59
2023/06/07 09:04:56;;;;;;;3.28;1.75;;;;;;;21.83;55.19;96678.41;2073545;28;20232;-62
2023/06/07 09:05:57;;;;;;;19.13;3.47;;;;;;;21.74;55.22;96673.06;2072403;28;20274;-60
2023/06/07 09:07:01;;;;;;;4.85;2.53;;;;;;;22.54;54.55;96679.13;2069952;28;20229;-60
2023/06/07 09:08:03;;;;;;;11.13;7.88;;;;;;;23.09;53.16;96680.25;2070721;28;20608;-60
2023/06/07 09:09:05;;;;;;;20.15;12.95;;;;;;;23.56;52.74;96690.84;2078631;28;20208;-60
2023/06/07 09:10:08;;;;;;;27.92;13.98;;;;;;;23.75;51.53;96687.22;2079699;28;20205;-60
2023/06/07 09:11:09;;;;;;;26.02;16.33;;;;;;;22.89;51.86;96687.44;2068775;28;20217;-60
2023/06/07 09:12:11;;;;;;;6.10;1.88;;;;;;;22.46;52.74;96684.31;2073212;28;20754;-60
2023/06/07 09:13:20;;;;;;;27.00;18.25;;;;;;;23.51;51.93;96687.78;2079980;28;20243;-60
2023/06/07 09:14:21;;;;;;;6.10;2.25;;;;;;;23.48;50.91;96690.75;2072374;28;20205;-59
2023/06/07 09:15:23;;;;;;;5.40;2.20;;;;;;;22.48;52.45;96688.50;2071975;28;20280;-60
2023/06/07 09:16:25;;;;;;;3.28;1.92;;;;;;;23.29;52.01;96687.19;2072200;28;20261;-60
2023/06/07 09:17:53;;;;;;;5.35;2.20;;;;;;;24.26;50.74;96690.25;2072762;28;20197;-60
2023/06/07 09:18:55;;;;;;;4.10;1.88;;;;;;;24.49;49.20;96692.44;2072883;28;20690;-60
2023/06/07 09:19:56;;;;;;;3.88;1.80;;;;;;;24.83;49.18;96682.88;2073139;28;20201;-60
2023/06/07 09:20:58;;;;;;;4.15;2.10;;;;;;;24.63;48.01;96693.69;2072328;28;20262;-58
2023/06/07 09:22:01;;;;;;;10.85;1.63;;;;;;;24.61;48.30;96688.53;2072427;28;20288;-58
2023/06/07 09:23:14;;;;;;;6.38;1.30;;;;;;;24.31;48.77;96681.78;2073192;28;20201;-58
2023/06/07 09:24:27;;;;;;;3.08;1.33;;;;;;;22.98;50.32;96687.44;2080433;28;20288;-58
2023/06/07 09:25:30;;;;;;;2.05;1.40;;;;;;;23.07;51.11;96692.84;2077730;28;20341;-58
2023/06/07 09:26:36;;;;;;;2.95;1.50;;;;;;;23.20;51.35;96689.88;2073674;28;21037;-58
2023/06/07 09:27:38;;;;;;;5.40;2.15;;;;;;;23.37;52.28;96685.63;2073102;28;20194;-60
2023/06/07 09:28:40;;;;;;;5.72;2.08;;;;;;;23.47;51.68;96689.06;2069789;28;20293;-60
2023/06/07 09:29:43;;;;;;;5.18;2.28;;;;;;;23.08;51.56;96692.69;2073139;28;20289;-60
2023/06/07 09:30:56;;;;;;;2.60;1.67;;;;;;;23.28;52.50;96690.84;2072724;28;20304;-60
2023/06/07 09:32:16;;;;;;;3.55;1.77;;;;;;;24.22;51.58;96691.53;2073603;28;20743;-60
2023/06/07 09:33:33;;;;;;;6.60;2.20;;;;;;;23.74;51.35;96682.88;2073544;28;20420;-61
2023/06/07 09:34:35;;;;;;;2.25;1.52;;;;;;;22.90;52.30;96686.47;2072632;28;20248;-60
2023/06/07 09:35:37;;;;;;;2.60;1.40;;;;;;;22.60;53.68;96688.34;2072251;28;20651;-60
2023/06/07 09:36:51;;;;;;;6.80;2.20;;;;;;;22.92;53.64;96682.69;2072384;28;20197;-60
2023/06/07 09:37:54;;;;;;;3.20;1.83;;;;;;;23.73;52.60;96683.03;2072667;28;20232;-60
2023/06/07 09:38:57;;;;;;;4.15;1.40;;;;;;;23.89;52.21;96685.88;2072313;28;20201;-59
2023/06/07 09:40:08;;;;;;;4.35;1.40;;;;;;;23.44;51.46;96674.22;2071688;28;20214;-59
2023/06/07 09:41:10;;;;;;;2.13;1.20;;;;;;;23.89;51.25;96669.88;2076481;28;20256;-59
2023/06/07 09:42:17;;;;;;;5.25;1.30;;;;;;;24.55;51.14;96681.13;2078118;28;20252;-58
2023/06/07 09:43:18;;;;;;;6.53;1.70;;;;;;;24.61;50.23;96680.50;2080600;28;20656;-57
2023/06/07 09:44:28;;;;;;;10.50;1.90;;;;;;;24.89;49.71;96677.72;2074885;28;20581;-57
2023/06/07 09:45:31;;;;;;;10.68;5.35;;;;;;;25.25;49.17;96677.59;2072786;28;20197;-56
2023/06/07 09:46:35;;;;;;;15.93;11.20;;;;;;;25.36;48.75;96673.81;2072708;28;20323;-58
2023/06/07 09:47:37;;;;;;;7.90;5.40;;;;;;;25.52;47.73;96677.56;2072524;28;20194;-57
2023/06/07 09:48:45;;;;;;;53.17;37.22;;;;;;;25.96;47.20;96684.53;2072967;28;20206;-57
2023/06/07 09:49:47;;;;;;;8.88;4.85;;;;;;;25.60;46.97;96674.91;2071284;28;20673;-57
2023/06/07 09:50:59;;;;;;;3.40;1.90;;;;;;;25.20;48.05;96682.56;2072546;28;20893;-57
2023/06/07 09:52:02;;;;;;;3.75;1.40;;;;;;;25.51;47.25;96679.41;2072560;28;20235;-58
2023/06/07 09:53:03;;;;;;;3.08;1.40;;;;;;;25.56;47.14;96677.06;2067204;28;20645;-57
2023/06/07 09:54:06;;;;;;;3.70;1.80;;;;;;;25.69;47.22;96681.13;2068610;28;20202;-58
2023/06/07 09:55:25;;;;;;;2.80;1.40;;;;;;;24.48;47.88;96682.78;2068659;28;20206;-57
2023/06/07 09:56:27;;;;;;;1.92;1.30;;;;;;;23.80;50.45;96626.28;2067672;28;20214;-57
2023/06/07 09:57:32;;;;;;;2.38;1.25;;;;;;;24.84;49.45;96682.72;2069314;28;20201;-58
2023/06/07 09:58:33;;;;;;;2.70;1.23;;;;;;;25.33;47.88;96683.97;2067301;28;20258;-57
2023/06/07 09:59:39;;;;;;;2.95;1.30;;;;;;;25.70;47.04;96677.44;2067418;28;20835;-57
2023/06/07 10:00:42;;;;;;;3.90;2.60;;;;;;;26.20;46.17;96681.91;2067633;28;20209;-58
2023/06/07 10:01:46;;;;;;;3.25;1.92;;;;;;;25.97;46.28;96679.00;2064141;28;20249;-58
2023/06/07 10:02:49;;;;;;;4.53;2.38;;;;;;;25.65;47.00;96679.75;2068407;28;20229;-58
2023/06/07 10:03:51;;;;;;;8.10;4.00;;;;;;;25.91;47.39;96685.00;2067629;28;20281;-58
2023/06/07 10:04:55;;;;;;;5.50;1.30;;;;;;;26.16;45.97;96682.41;2067046;28;20293;-58
2023/06/07 10:06:00;;;;;;;3.35;1.40;;;;;;;26.13;45.46;96680.91;2066591;28;20233;-57
2023/06/07 10:07:02;;;;;;;1.95;1.30;;;;;;;24.93;46.62;96679.09;2069371;28;20262;-58
2023/06/07 10:08:05;;;;;;;3.70;1.40;;;;;;;23.90;48.57;96674.22;2067948;28;20203;-58
2023/06/07 10:09:08;;;;;;;2.63;1.05;;;;;;;25.18;47.05;96676.56;2064432;28;20226;-58
2023/06/07 10:10:11;;;;;;;4.20;1.67;;;;;;;25.02;45.35;96677.28;2064287;28;20206;-58
2023/06/07 10:11:14;;;;;;;2.35;1.35;;;;;;;23.96;47.13;96681.63;2063501;28;20317;-58
2023/06/07 10:12:17;;;;;;;1.85;1.20;;;;;;;24.35;47.70;96677.81;2064516;28;20199;-58
2023/06/07 10:13:20;;;;;;;2.20;1.20;;;;;;;25.47;47.57;96683.41;2067655;28;20197;-58
2023/06/07 10:14:28;;;;;;;2.60;1.20;;;;;;;25.94;47.28;96681.16;2068070;28;20284;-57
2023/06/07 10:15:31;;;;;;;3.15;1.30;;;;;;;26.15;45.90;96678.88;2066751;28;20286;-58
2023/06/07 10:16:38;;;;;;;2.42;1.40;;;;;;;26.04;46.49;96672.00;2067143;28;20198;-58
2023/06/07 10:17:55;;;;;;;1.75;1.15;;;;;;;26.59;45.84;96680.41;2067089;28;20293;-57
2023/06/07 10:19:05;;;;;;;3.55;1.67;;;;;;;26.66;45.05;96672.53;2067743;28;20202;-58
2023/06/07 10:20:11;;;;;;;3.80;1.20;;;;;;;26.81;45.37;96673.53;2068035;28;20201;-57
2023/06/07 10:21:17;;;;;;;5.10;1.38;;;;;;;26.25;43.40;96670.72;2059704;28;20234;-57
2023/06/07 10:22:23;;;;;;;2.78;1.70;;;;;;;24.91;45.63;96675.75;2068133;28;20632;-58
2023/06/07 10:23:34;;;;;;;2.30;1.65;;;;;;;24.99;45.23;96666.94;2068954;28;20755;-57
2023/06/07 10:25:07;;;;;;;2.95;1.52;;;;;;;24.39;46.47;96616.97;2068093;28;20209;-57
2023/06/07 10:26:18;;;;;;;3.10;1.30;;;;;;;24.89;46.82;96669.72;2061797;28;20267;-58
2023/06/07 10:27:23;;;;;;;2.63;1.50;;;;;;;25.49;45.53;96670.69;2066322;28;20524;-57
2023/06/07 10:28:39;;;;;;;2.58;1.70;;;;;;;25.56;46.51;96671.72;2068411;28;20198;-58
2023/06/07 10:30:09;;;;;;;2.97;1.50;;;;;;;25.00;46.71;96671.28;2068376;28;20225;-57
2023/06/07 10:31:13;;;;;;;2.42;1.48;;;;;;;25.51;46.61;96668.72;2067333;28;20770;-58
2023/06/07 10:32:30;;;;;;;2.60;1.20;;;;;;;26.28;45.32;96659.66;2067310;28;20209;-57
2023/06/07 10:33:35;;;;;;;3.05;1.50;;;;;;;25.54;45.08;96665.69;2068520;28;20202;-58
2023/06/07 10:34:38;;;;;;;3.28;1.65;;;;;;;25.79;45.09;96656.91;2066354;28;20201;-58
2023/06/07 10:35:40;;;;;;;4.18;1.30;;;;;;;25.47;45.90;96658.50;2065046;28;20277;-57
2023/06/07 10:36:42;;;;;;;3.42;1.70;;;;;;;26.11;44.67;96658.00;2067148;28;20194;-58
2023/06/07 10:37:44;;;;;;;5.03;1.60;;;;;;;26.43;43.92;96665.19;2069232;28;20645;-58
2023/06/07 10:38:46;;;;;;;2.45;1.42;;;;;;;26.71;42.82;96654.94;2068286;28;20199;-58
2023/06/07 10:39:48;;;;;;;4.00;1.60;;;;;;;26.65;41.95;96660.16;2066852;28;20202;-58
2023/06/07 10:40:51;;;;;;;2.70;1.63;;;;;;;26.64;42.84;96659.31;2065204;28;20321;-58
2023/06/07 10:41:54;;;;;;;2.50;1.50;;;;;;;26.24;42.42;96661.00;2065005;28;20206;-58
2023/06/07 10:42:57;;;;;;;4.88;1.60;;;;;;;26.76;43.44;96656.34;2065516;28;20198;-58
2023/06/07 10:44:01;;;;;;;2.72;1.55;;;;;;;26.87;41.84;96656.78;2065378;28;20294;-58
2023/06/07 10:45:04;;;;;;;2.30;1.52;;;;;;;26.29;42.36;96653.31;2066481;28;20441;-57
2023/06/07 10:46:25;;;;;;;2.95;1.25;;;;;;;27.01;42.07;96657.09;2067508;28;20229;-58
2023/06/07 10:47:30;;;;;;;2.75;1.55;;;;;;;27.51;41.11;96653.25;2063975;28;20199;-58
2023/06/07 10:48:35;;;;;;;2.90;1.50;;;;;;;25.77;42.77;96659.75;2066223;28;20588;-57
2023/06/07 10:49:37;;;;;;;2.20;1.27;;;;;;;24.22;45.84;96645.38;2066699;28;20708;-58
2023/06/07 10:50:47;;;;;;;2.15;1.55;;;;;;;23.81;47.33;96656.47;2066011;28;20905;-57
2023/06/07 10:51:58;;;;;;;3.25;1.50;;;;;;;23.21;47.86;96651.63;2066795;28;20793;-57
2023/06/07 10:53:01;;;;;;;4.93;1.45;;;;;;;23.83;47.47;96642.97;2066628;28;20198;-58
2023/06/07 10:54:02;;;;;;;2.17;1.40;;;;;;;24.25;47.22;96650.38;2066755;28;20198;-57
2023/06/07 10:55:30;;;;;;;2.83;1.23;;;;;;;24.50;46.13;96651.41;2067912;28;20798;-57
2023/06/07 10:56:33;;;;;;;2.35;1.55;;;;;;;24.54;47.47;96636.75;2067118;28;20218;-57
2023/06/07 10:57:37;;;;;;;3.50;1.20;;;;;;;25.48;46.59;96652.97;2066435;28;20202;-57
2023/06/07 10:58:38;;;;;;;2.38;1.20;;;;;;;25.97;45.76;96652.25;2066629;28;20207;-58
2023/06/07 10:59:40;;;;;;;2.60;1.35;;;;;;;25.84;46.08;96650.06;2063623;28;20332;-57
2023/06/07 11:00:42;;;;;;;2.85;1.58;;;;;;;26.45;45.06;96648.94;2064298;28;20254;-57
2023/06/07 11:01:46;;;;;;;2.20;1.40;;;;;;;26.37;43.99;96641.78;2066634;28;20228;-57
2023/06/07 11:02:47;;;;;;;3.13;1.60;;;;;;;26.11;45.04;96641.97;2067392;28;20251;-58
2023/06/07 11:03:50;;;;;;;4.75;1.13;;;;;;;26.45;44.97;96641.78;2067435;28;20241;-58
2023/06/07 11:04:59;;;;;;;3.20;1.70;;;;;;;26.98;44.34;96641.38;2064007;28;20191;-58
2023/06/07 11:06:01;;;;;;;10.68;1.58;;;;;;;27.02;44.01;96640.00;2067128;28;20225;-58
2023/06/07 11:07:28;;;;;;;3.75;1.65;;;;;;;27.31;43.12;96643.94;2063723;28;20654;-57
2023/06/07 11:08:36;;;;;;;4.45;1.50;;;;;;;27.25;44.14;96652.66;2064977;28;20698;-58
2023/06/07 11:09:38;;;;;;;2.00;1.10;;;;;;;28.11;43.09;96647.38;2066587;28;20349;-58
2023/06/07 11:10:39;;;;;;;2.40;1.20;;;;;;;28.25;42.19;96653.81;2066805;28;20193;-59
2023/06/07 11:11:42;;;;;;;2.80;1.45;;;;;;;28.09;40.00;96649.44;2066920;28;20198;-59
2023/06/07 11:12:44;;;;;;;2.95;1.25;;;;;;;26.80;41.38;96647.75;2066419;28;20277;-59
2023/06/07 11:14:06;;;;;;;3.70;1.40;;;;;;;26.78;42.21;96652.47;2064938;28;20195;-59
2023/06/07 11:15:16;;;;;;;1.67;1.10;;;;;;;27.42;42.33;96646.25;2063434;28;20305;-58
2023/06/07 11:16:24;;;;;;;2.53;1.50;;;;;;;27.54;41.92;96644.00;2066022;28;20225;-58
2023/06/07 11:17:49;;;;;;;7.50;5.53;;;;;;;28.01;42.03;96648.44;2066595;28;20209;-58
2023/06/07 11:18:55;;;;;;;6.43;4.47;;;;;;;27.90;41.24;96637.28;2065265;28;20561;-58
2023/06/07 11:19:57;;;;;;;3.70;1.92;;;;;;;26.70;42.97;96641.72;2065767;28;20228;-58
2023/06/07 11:20:59;;;;;;;2.00;1.20;;;;;;;27.59;42.74;96646.16;2065784;28;20588;-58
2023/06/07 11:22:04;;;;;;;2.35;1.33;;;;;;;27.68;41.44;96642.44;2068059;28;20213;-59
2023/06/07 11:23:31;;;;;;;3.45;1.20;;;;;;;27.02;43.51;96640.00;2066969;28;20221;-59
2023/06/07 11:24:35;;;;;;;3.70;1.30;;;;;;;27.81;41.87;96633.81;2066216;28;20209;-59
2023/06/07 11:25:37;;;;;;;1.63;1.10;;;;;;;28.04;41.15;96636.53;2065845;28;20788;-58
2023/06/07 11:26:40;;;;;;;2.70;1.40;;;;;;;28.52;41.10;96641.69;2067395;28;20689;-59
2023/06/07 11:27:41;;;;;;;2.70;1.60;;;;;;;28.77;40.15;96636.94;2063380;28;20348;-59
2023/06/07 11:28:43;;;;;;;2.78;1.60;;;;;;;26.21;42.52;96632.75;2064770;28;20199;-59
2023/06/07 11:29:46;;;;;;;3.60;1.65;;;;;;;25.71;44.24;96625.63;2066752;28;20206;-58
2023/06/07 11:30:50;;;;;;;3.90;1.70;;;;;;;25.58;45.63;96640.34;2063069;28;20218;-58
2023/06/07 11:32:02;;;;;;;3.28;1.60;;;;;;;26.44;43.60;96634.75;2064617;28;20206;-59
2023/06/07 11:33:04;;;;;;;1.88;1.15;;;;;;;27.67;41.86;96630.88;2067671;28;20197;-58
2023/06/07 11:34:06;;;;;;;7.28;1.45;;;;;;;27.99;41.35;96636.22;2065860;28;20201;-60
2023/06/07 11:35:08;;;;;;;3.88;1.23;;;;;;;27.49;41.09;96638.34;2063561;28;20198;-58
2023/06/07 11:36:18;;;;;;;2.47;1.20;;;;;;;28.02;40.83;96633.16;2066210;28;20711;-59
2023/06/07 11:37:22;;;;;;;2.92;1.55;;;;;;;27.03;40.22;96630.97;2065804;28;20318;-59
2023/06/07 11:38:26;;;;;;;3.78;1.55;;;;;;;26.84;42.42;96633.03;2066262;28;20202;-59
2023/06/07 11:39:34;;;;;;;2.47;1.45;;;;;;;27.94;40.85;96631.38;2067134;28;20340;-59
2023/06/07 11:40:36;;;;;;;2.38;1.42;;;;;;;28.52;40.45;96633.63;2065550;28;20209;-59
2023/06/07 11:41:38;;;;;;;2.65;1.55;;;;;;;28.14;39.76;96629.06;2067483;28;20237;-59
2023/06/07 11:42:40;;;;;;;3.45;1.60;;;;;;;27.83;39.98;96621.06;2068628;28;20546;-59
2023/06/07 11:43:45;;;;;;;2.40;1.50;;;;;;;27.94;40.31;96626.00;2063440;28;20670;-60
2023/06/07 11:44:47;;;;;;;7.97;2.03;;;;;;;28.72;40.31;96625.06;2066244;28;20205;-59
2023/06/07 11:45:49;;;;;;;3.00;1.55;;;;;;;28.34;40.78;96632.09;2062510;28;20222;-58
2023/06/07 11:46:50;;;;;;;3.47;1.50;;;;;;;27.62;41.84;96627.06;2063747;28;20225;-58
2023/06/07 11:47:56;;;;;;;2.55;1.50;;;;;;;26.67;43.16;96626.00;2068531;28;20426;-58
2023/06/07 11:49:05;;;;;;;2.10;1.25;;;;;;;27.10;42.46;96623.09;2063220;28;20289;-58
2023/06/07 11:50:06;;;;;;;2.40;1.65;;;;;;;27.40;42.50;96623.31;2064105;28;20830;-58
2023/06/07 11:51:08;;;;;;;1.85;1.25;;;;;;;27.68;41.88;96624.50;2066149;28;20226;-58
2023/06/07 11:52:10;;;;;;;2.72;1.30;;;;;;;28.25;40.83;96626.97;2067734;28;20288;-57
2023/06/07 11:53:13;;;;;;;2.30;1.40;;;;;;;28.66;40.40;96618.56;2067517;28;20751;-59
2023/06/07 11:54:16;;;;;;;3.55;1.52;;;;;;;28.92;40.23;96620.81;2067106;28;20288;-58
2023/06/07 11:55:18;;;;;;;3.75;1.48;;;;;;;28.59;40.84;96617.63;2062195;28;20230;-59
2023/06/07 11:56:19;;;;;;;3.25;1.30;;;;;;;28.73;40.66;96626.75;2055417;28;20741;-59
2023/06/07 11:57:22;;;;;;;5.75;1.48;;;;;;;29.18;40.22;96611.47;2064416;28;20202;-59
2023/06/07 11:58:24;;;;;;;2.47;1.60;;;;;;;28.57;38.98;96625.00;2066683;28;20201;-59
2023/06/07 11:59:26;;;;;;;3.90;1.48;;;;;;;28.22;39.87;96622.81;2067381;28;20209;-59
2023/06/07 12:00:33;;;;;;;2.25;1.33;;;;;;;28.58;39.07;96605.19;2065391;28;20201;-59
2023/06/07 12:01:34;;;;;;;3.53;1.60;;;;;;;28.55;39.58;96613.63;2066968;28;20250;-60
2023/06/07 12:02:39;;;;;;;3.17;1.20;;;;;;;28.57;40.05;96609.75;2066478;28;20436;-59
2023/06/07 12:03:41;;;;;;;4.25;1.70;;;;;;;29.05;39.96;96605.91;2070079;28;21155;-59
2023/06/07 12:04:45;;;;;;;3.25;1.67;;;;;;;29.77;38.59;96607.81;2069960;28;20708;-59
2023/06/07 12:05:47;;;;;;;4.53;1.50;;;;;;;29.85;36.50;96606.84;2064578;28;20222;-58
2023/06/07 12:06:49;;;;;;;3.63;1.50;;;;;;;27.15;40.83;96616.19;2067986;28;20474;-58
2023/06/07 12:07:54;;;;;;;4.22;1.42;;;;;;;28.10;39.78;96605.44;2063201;28;20639;-59
2023/06/07 12:08:55;;;;;;;3.88;1.30;;;;;;;28.02;40.80;96609.88;2064737;28;20555;-59
2023/06/07 12:09:56;;;;;;;3.47;1.60;;;;;;;28.97;39.88;96606.84;2066374;28;20248;-60
2023/06/07 12:10:58;;;;;;;2.53;1.60;;;;;;;29.49;39.19;96613.91;2066655;28;20233;-59
2023/06/07 12:12:00;;;;;;;4.22;1.55;;;;;;;29.19;39.61;96606.91;2066716;28;20424;-59
2023/06/07 12:13:18;;;;;;;3.00;2.20;;;;;;;27.72;40.83;96608.91;2065490;28;20194;-59
2023/06/07 12:14:30;;;;;;;2.85;1.98;;;;;;;27.45;42.43;96612.91;2066262;28;20427;-58
2023/06/07 12:15:34;;;;;;;2.00;1.45;;;;;;;28.30;40.49;96616.53;2063913;28;20193;-59
2023/06/07 12:16:38;;;;;;;4.00;1.63;;;;;;;28.87;39.33;96604.41;2067545;28;20201;-59
2023/06/07 12:17:41;;;;;;;4.15;1.88;;;;;;;28.38;39.42;96611.09;2071029;28;20201;-59
2023/06/07 12:18:43;;;;;;;3.40;1.60;;;;;;;26.31;42.48;96608.50;2073210;28;20728;-59
2023/06/07 12:19:45;;;;;;;1.50;1.20;;;;;;;27.04;42.01;96606.66;2065505;28;20472;-58
2023/06/07 12:20:47;;;;;;;3.25;1.67;;;;;;;27.22;41.54;96600.25;2065438;28;20225;-59
2023/06/07 12:21:49;;;;;;;2.00;1.35;;;;;;;27.04;41.95;96597.81;2076355;28;20791;-59
2023/06/07 12:22:51;;;;;;;5.00;1.92;;;;;;;27.23;42.14;96603.78;2066953;28;20671;-59
2023/06/07 12:23:53;;;;;;;5.13;2.15;;;;;;;27.41;40.89;96611.59;2064880;28;20811;-59
2023/06/07 12:25:06;;;;;;;3.70;1.55;;;;;;;28.12;40.74;96603.44;2065373;28;20730;-58
2023/06/07 12:26:16;;;;;;;6.03;1.90;;;;;;;28.63;40.17;96605.47;2066054;28;21258;-59
2023/06/07 12:27:18;;;;;;;4.40;1.63;;;;;;;28.48;39.43;96609.00;2064885;28;20403;-59
2023/06/07 12:28:20;;;;;;;3.63;1.38;;;;;;;28.84;39.38;96594.06;2064106;28;20202;-59
2023/06/07 12:29:29;;;;;;;1.50;1.10;;;;;;;28.56;39.20;96601.88;2065849;28;20780;-59
2023/06/07 12:30:32;;;;;;;1.83;1.30;;;;;;;28.47;38.96;96598.44;2062649;28;20694;-59
2023/06/07 12:31:39;;;;;;;4.03;1.50;;;;;;;28.29;39.57;96601.44;2066999;28;20323;-59
2023/06/07 12:32:41;;;;;;;6.47;1.97;;;;;;;26.65;41.42;96599.41;2067423;28;20439;-59
2023/06/07 12:34:01;;;;;;;2.10;1.60;;;;;;;26.10;43.10;96595.63;2067810;28;20939;-59
2023/06/07 12:35:07;;;;;;;5.22;1.40;;;;;;;25.22;43.91;96600.44;2063163;28;20444;-59
2023/06/07 12:36:09;;;;;;;4.43;1.52;;;;;;;26.15;43.36;96598.63;2070326;28;20225;-59
2023/06/07 12:37:11;;;;;;;2.85;1.40;;;;;;;26.57;42.69;96596.75;2065036;28;20665;-59
2023/06/07 12:38:13;;;;;;;2.40;1.70;;;;;;;26.79;41.76;96595.22;2065916;28;20333;-58
2023/06/07 12:39:18;;;;;;;2.03;1.52;;;;;;;25.06;43.99;96597.69;2062899;28;20427;-59
2023/06/07 12:40:19;;;;;;;3.28;1.55;;;;;;;25.71;43.83;96582.84;2063506;28;20202;-59
2023/06/07 12:41:27;;;;;;;2.33;1.55;;;;;;;26.10;42.63;96592.13;2062455;28;20342;-59
2023/06/07 12:42:29;;;;;;;3.20;1.55;;;;;;;26.53;42.68;96595.41;2064957;28;20205;-59
2023/06/07 12:43:31;;;;;;;2.40;1.70;;;;;;;26.38;42.44;96590.75;2065084;28;20670;-59
2023/06/07 12:44:33;;;;;;;4.00;1.63;;;;;;;26.58;42.21;96587.72;2066676;28;20251;-58
2023/06/07 12:45:34;;;;;;;2.00;1.45;;;;;;;27.53;41.88;96588.75;2062792;28;20206;-58
2023/06/07 12:46:36;;;;;;;2.70;1.38;;;;;;;27.60;42.09;96594.22;2063729;28;20198;-59
2023/06/07 12:47:38;;;;;;;6.68;1.55;;;;;;;28.27;41.07;96590.88;2066895;28;20200;-58
2023/06/07 12:48:43;;;;;;;2.58;1.80;;;;;;;27.08;42.40;96590.25;2065004;28;20348;-59
2023/06/07 12:49:44;;;;;;;3.05;1.83;;;;;;;27.62;41.16;96587.66;2067119;28;20280;-59
2023/06/07 12:50:46;;;;;;;2.58;1.40;;;;;;;28.26;40.53;96585.72;2065462;28;20226;-58
2023/06/07 12:51:47;;;;;;;4.38;1.50;;;;;;;28.82;40.15;96583.50;2067825;28;20198;-58
2023/06/07 12:52:50;;;;;;;2.50;1.30;;;;;;;29.08;39.50;96582.19;2066430;28;20205;-58
2023/06/07 12:53:52;;;;;;;2.38;1.30;;;;;;;28.65;39.92;96576.59;2066229;28;20197;-58
2023/06/07 12:54:54;;;;;;;2.22;1.20;;;;;;;27.63;41.09;96577.75;2067063;28;20219;-58
2023/06/07 12:55:55;;;;;;;2.28;1.30;;;;;;;27.95;41.27;96570.50;2073988;28;20248;-58
2023/06/07 12:56:57;;;;;;;2.15;1.58;;;;;;;28.79;40.92;96570.41;2073236;28;20198;-58
2023/06/07 12:57:59;;;;;;;1.85;1.23;;;;;;;28.88;39.83;96573.03;2065465;28;20293;-58
2023/06/07 12:59:00;;;;;;;3.22;1.70;;;;;;;29.26;39.14;96573.72;2063092;28;20194;-59
2023/06/07 13:00:05;;;;;;;4.18;1.30;;;;;;;28.78;39.47;96576.81;2066784;28;20742;-58
2023/06/07 13:01:07;;;;;;;3.47;1.70;;;;;;;29.11;39.82;96562.97;2066295;28;20280;-58
2023/06/07 13:02:09;;;;;;;19.33;1.73;;;;;;;29.09;39.76;96567.72;2067089;28;20262;-58
2023/06/07 13:03:10;;;;;;;4.37;1.43;;;;;;;29.47;39.02;96572.97;2067869;28;20436;-58
2023/06/07 13:04:13;;;;;;;3.33;1.17;;;;;;;28.75;39.69;96571.81;2063023;28;20456;-59
2023/06/07 13:05:15;;;;;;;2.70;2.07;;;;;;;29.23;38.88;96570.56;2064189;28;20415;-59
2023/06/07 13:06:17;;;;;;;2.30;1.57;;;;;;;29.23;39.23;96571.41;2064741;28;20970;-59
2023/06/07 13:07:21;;;;;;;3.00;1.80;;;;;;;29.47;39.37;96570.28;2065901;28;20522;-59
2023/06/07 13:08:23;;;;;;;3.63;1.77;;;;;;;29.54;38.98;96573.03;2065740;28;20431;-59
2023/06/07 13:09:24;;;;;;;1.90;1.27;;;;;;;29.36;38.34;96567.22;2065473;28;20443;-59
2023/06/07 13:10:26;;;;;;;3.40;1.80;;;;;;;29.12;38.03;96570.03;2065007;28;20883;-59
2023/06/07 13:11:27;;;;;;;2.23;1.37;;;;;;;28.94;38.99;96564.22;2068861;28;20481;-59
2023/06/07 13:12:30;;;;;;;2.70;2.00;;;;;;;29.23;39.10;96563.34;2065753;28;20492;-59
2023/06/07 13:13:32;;;;;;;2.33;1.70;;;;;;;28.81;38.73;96565.72;2066039;28;20420;-59
2023/06/07 13:14:35;;;;;;;2.70;1.50;;;;;;;28.86;39.29;96564.31;2063079;28;20432;-59
2023/06/07 13:15:36;;;;;;;3.50;2.20;;;;;;;28.76;39.08;96567.25;2074293;28;20554;-59
2023/06/07 13:16:38;;;;;;;3.23;1.50;;;;;;;28.39;39.49;96568.97;2074402;28;20427;-59
2023/06/07 13:17:40;;;;;;;3.20;1.40;;;;;;;28.34;39.50;96569.50;2063035;28;20546;-60
2023/06/07 13:18:43;;;;;;;2.30;1.50;;;;;;;28.51;39.60;96575.56;2063605;28;20432;-59
2023/06/07 13:19:44;;;;;;;2.30;1.60;;;;;;;28.32;39.26;96560.81;2066284;28;20466;-59
2023/06/07 13:20:46;;;;;;;1.77;1.50;;;;;;;28.81;38.83;96556.78;2062379;28;21186;-59
2023/06/07 13:21:48;;;;;;;2.00;1.70;;;;;;;29.33;38.79;96563.06;2066746;28;20455;-59
2023/06/07 13:22:49;;;;;;;3.03;1.60;;;;;;;29.83;38.21;96555.13;2065357;28;20971;-59
2023/06/07 13:23:51;;;;;;;2.30;1.60;;;;;;;28.76;38.48;96560.06;2068217;28;21004;-58
2023/06/07 13:24:54;;;;;;;5.13;1.83;;;;;;;29.19;37.82;96553.16;2067502;28;20423;-59
2023/06/07 13:25:55;;;;;;;3.20;1.87;;;;;;;29.22;37.91;96558.16;2065735;28;20472;-59
2023/06/07 13:26:57;;;;;;;3.20;1.37;;;;;;;28.90;38.36;96561.06;2066155;28;20419;-59
2023/06/07 13:27:58;;;;;;;2.00;1.50;;;;;;;28.75;38.87;96557.56;2065517;28;20443;-59
2023/06/07 13:29:00;;;;;;;3.30;1.70;;;;;;;29.67;38.22;96553.50;2064356;28;20526;-59
2023/06/07 13:30:03;;;;;;;3.90;1.57;;;;;;;29.23;39.58;96555.28;2065164;28;20651;-59
2023/06/07 13:31:05;;;;;;;6.83;1.70;;;;;;;29.19;39.15;96553.16;2067178;28;21005;-59
2023/06/07 13:32:07;;;;;;;7.70;1.70;;;;;;;28.79;39.36;96559.66;2064510;28;20522;-58
2023/06/07 13:33:18;;;;;;;3.03;1.70;;;;;;;28.38;40.02;96554.72;2064748;28;20523;-59
2023/06/07 13:34:19;;;;;;;4.17;1.80;;;;;;;27.88;41.01;96558.81;2064186;28;20528;-58
2023/06/07 13:35:21;;;;;;;4.80;1.40;;;;;;;28.10;40.46;96559.84;2065590;28;20459;-59